Terminal Aerodrome Forecast
Issued by NWS

Home | Current Version | Previous Version | Text Only | Print | Product List | Glossary On
Versions: 1 2 3 4 5 6 7 8 9 10 11 12
725
FTUS43 KMPX 210524
TAFAXN
TAF
KAXN 210524Z 2106/2206 27006KT P6SM OVC120
     FM210900 34004KT P6SM OVC080
     FM212000 02008KT P6SM OVC030
     FM220000 03008KT P6SM OVC015=

USA.gov is the U.S. government's official web portal to all federal, state and local government web resources and services.